Time;durP1;ratioP1;P1;durP2;ratioP2;P2;SDS_P1;SDS_P2;PMS_P1;PMS_P2;Temp;Humidity;BMP_temperature;BMP_pressure;BME280_temperature;BME280_humidity;BME280_pressure;Samples;Min_cycle;Max_cycle;Signal;HPM_P1;HPM_P2
2021/10/03 00:01:31;;;;;;;15.97;8.03;;;;;;;3.46;76.95;102472.61;1748058;82;21292;-61
2021/10/03 00:04:05;;;;;;;16.23;8.35;;;;;;;3.46;77.21;102473.05;1749005;82;21196;-60
2021/10/03 00:06:38;;;;;;;18.52;8.58;;;;;;;3.46;77.38;102471.31;1749325;82;21185;-61
2021/10/03 00:09:12;;;;;;;16.70;8.75;;;;;;;3.45;77.46;102471.33;1749003;82;21260;-60
2021/10/03 00:11:47;;;;;;;21.68;10.05;;;;;;;3.45;77.44;102473.48;1747929;82;21218;-61
2021/10/03 00:14:21;;;;;;;17.20;9.18;;;;;;;3.42;77.36;102467.07;1748956;82;21716;-61
2021/10/03 00:16:55;;;;;;;19.27;9.15;;;;;;;3.40;77.38;102471.44;1749093;82;21237;-61
2021/10/03 00:19:28;;;;;;;17.50;8.83;;;;;;;3.39;77.37;102472.34;1748980;82;21312;-62
2021/10/03 00:22:02;;;;;;;13.68;7.50;;;;;;;3.36;77.42;102471.98;1747859;82;21281;-61
2021/10/03 00:24:35;;;;;;;14.35;8.53;;;;;;;3.35;77.44;102471.55;1748980;82;21181;-63
2021/10/03 00:27:08;;;;;;;17.07;8.43;;;;;;;3.33;77.47;102471.19;1749366;82;21269;-61
2021/10/03 00:29:41;;;;;;;12.98;7.03;;;;;;;3.30;77.44;102469.95;1748938;82;21264;-63
2021/10/03 00:32:16;;;;;;;19.25;8.13;;;;;;;3.26;77.36;102468.33;1747671;82;21296;-61
2021/10/03 00:34:49;;;;;;;15.93;7.95;;;;;;;3.21;77.39;102463.70;1748941;82;21863;-62
2021/10/03 00:37:23;;;;;;;15.78;8.08;;;;;;;3.19;77.46;102461.59;1749284;82;21262;-62
2021/10/03 00:39:56;;;;;;;17.25;8.50;;;;;;;3.16;77.52;102459.08;1749019;82;21225;-63
2021/10/03 00:42:30;;;;;;;15.32;8.38;;;;;;;3.15;77.54;102460.80;1747785;82;21189;-61
2021/10/03 00:45:04;;;;;;;14.53;8.50;;;;;;;3.14;77.55;102470.77;1747953;82;21193;-62
2021/10/03 00:47:38;;;;;;;15.75;7.92;;;;;;;3.11;77.52;102467.38;1749086;82;21746;-62
2021/10/03 00:50:13;;;;;;;15.38;7.78;;;;;;;3.08;77.51;102463.59;1719879;82;21822;-62
2021/10/03 00:52:47;;;;;;;16.52;8.73;;;;;;;3.06;77.52;102468.78;1747765;82;21162;-61
2021/10/03 00:55:21;;;;;;;15.43;8.20;;;;;;;3.02;77.53;102464.58;1749191;82;21656;-62
2021/10/03 00:57:54;;;;;;;13.18;7.65;;;;;;;3.01;77.50;102463.33;1748503;81;21803;-62
2021/10/03 01:00:29;;;;;;;15.32;7.65;;;;;;;2.98;77.55;102470.71;1748822;82;21150;-61
2021/10/03 01:03:04;;;;;;;14.55;7.45;;;;;;;2.98;77.57;102473.30;1747919;82;21811;-61
2021/10/03 01:05:38;;;;;;;13.22;7.90;;;;;;;2.97;77.52;102472.02;1748783;82;21308;-62
2021/10/03 01:08:12;;;;;;;13.05;7.03;;;;;;;2.96;77.60;102475.52;1747268;82;21154;-61
2021/10/03 01:10:45;;;;;;;14.00;7.37;;;;;;;2.95;77.66;102471.20;1748935;82;21831;-61
2021/10/03 01:13:18;;;;;;;;;;;;;;;2.95;77.71;102475.09;1749865;82;21180;-61
2021/10/03 01:15:52;;;;;;;15.03;7.50;;;;;;;2.95;77.75;102476.38;1748900;82;20237;-61
2021/10/03 01:18:26;;;;;;;13.38;7.78;;;;;;;2.92;77.85;102478.59;1749079;82;21704;-61
2021/10/03 01:21:05;;;;;;;20.45;8.58;;;;;;;2.92;77.76;102481.62;1748888;82;21296;-62
2021/10/03 01:23:38;;;;;;;12.82;7.85;;;;;;;2.91;77.73;102477.34;1719619;82;21260;-63
2021/10/03 01:26:12;;;;;;;18.32;8.03;;;;;;;2.89;77.67;102474.77;1748740;82;21276;-62
2021/10/03 01:28:46;;;;;;;13.25;7.62;;;;;;;2.86;77.64;102473.57;1749179;82;21257;-62
2021/10/03 01:31:19;;;;;;;17.73;8.17;;;;;;;2.85;77.62;102475.73;1749193;82;21288;-62
2021/10/03 01:33:57;;;;;;;14.23;7.42;;;;;;;2.82;77.59;102480.14;1749167;82;21672;-62
2021/10/03 01:36:30;;;;;;;21.23;8.38;;;;;;;2.80;77.59;102480.15;1748604;82;21212;-62
2021/10/03 01:39:04;;;;;;;13.13;7.53;;;;;;;2.79;77.59;102477.17;1749120;82;21169;-62
2021/10/03 01:41:37;;;;;;;14.03;7.55;;;;;;;2.77;77.57;102472.92;1748785;82;21330;-63
2021/10/03 01:44:10;;;;;;;15.50;7.75;;;;;;;2.73;77.50;102474.27;1748803;82;21339;-62
2021/10/03 01:46:44;;;;;;;13.13;7.08;;;;;;;2.73;77.49;102477.29;1748876;82;21296;-62
2021/10/03 01:49:17;;;;;;;14.70;7.28;;;;;;;2.71;77.53;102481.21;1749046;82;21788;-63
2021/10/03 01:51:50;;;;;;;12.90;7.10;;;;;;;2.69;77.50;102470.48;1748782;82;21281;-62
2021/10/03 01:54:23;;;;;;;14.05;6.90;;;;;;;2.67;77.68;102475.67;1748875;82;21272;-62
2021/10/03 01:56:57;;;;;;;12.20;6.92;;;;;;;2.67;77.76;102482.61;1749046;82;21336;-62
2021/10/03 01:59:30;;;;;;;15.75;7.87;;;;;;;2.66;77.83;102480.89;1747968;82;21327;-62
2021/10/03 02:02:05;;;;;;;27.50;11.45;;;;;;;2.65;77.78;102475.33;1748525;82;21213;-62
2021/10/03 02:04:38;;;;;;;25.52;10.78;;;;;;;2.63;77.78;102471.45;1749019;82;21154;-63
2021/10/03 02:07:11;;;;;;;17.27;7.30;;;;;;;2.62;77.73;102476.67;1748667;82;21316;-62
2021/10/03 02:09:45;;;;;;;16.12;8.60;;;;;;;2.58;77.60;102477.16;1749243;82;21253;-61
2021/10/03 02:12:18;;;;;;;17.25;8.55;;;;;;;2.55;77.55;102469.49;1697038;82;21304;-62
2021/10/03 02:14:51;;;;;;;15.50;7.77;;;;;;;2.53;77.61;102472.52;1749094;82;21216;-62
2021/10/03 02:17:24;;;;;;;17.40;7.50;;;;;;;2.52;77.62;102465.67;1749000;82;21288;-62
2021/10/03 02:19:57;;;;;;;12.80;7.70;;;;;;;2.50;77.62;102470.02;1749242;82;21292;-62
2021/10/03 02:22:30;;;;;;;10.88;5.87;;;;;;;2.50;77.72;102465.28;1748625;82;21327;-62
2021/10/03 02:25:03;;;;;;;11.57;6.10;;;;;;;2.48;77.67;102469.20;1749248;82;21300;-62
2021/10/03 02:27:37;;;;;;;17.45;9.13;;;;;;;2.44;77.61;102467.55;1748464;82;21340;-62
2021/10/03 02:30:11;;;;;;;17.00;9.13;;;;;;;2.43;77.66;102468.45;1748934;82;21288;-62
2021/10/03 02:32:44;;;;;;;18.17;8.65;;;;;;;2.42;77.64;102471.04;1748763;82;21296;-63
2021/10/03 02:35:19;;;;;;;17.27;9.28;;;;;;;2.40;77.64;102472.38;1748947;82;21165;-62
2021/10/03 02:37:53;;;;;;;15.78;7.97;;;;;;;2.39;77.62;102472.42;1748409;82;21165;-62
2021/10/03 02:40:26;;;;;;;18.02;8.63;;;;;;;2.35;77.55;102471.61;1748980;82;21154;-62
2021/10/03 02:43:00;;;;;;;10.23;6.00;;;;;;;2.35;77.56;102464.29;1748662;82;21293;-62
2021/10/03 02:45:35;;;;;;;;;;;;;;;2.35;77.60;102469.46;1750212;82;21197;-63
2021/10/03 02:48:07;;;;;;;16.02;8.63;;;;;;;2.34;77.67;102469.89;1748599;82;20161;-63
2021/10/03 02:50:40;;;;;;;14.85;8.28;;;;;;;2.30;77.73;102466.97;1749219;82;21261;-63
2021/10/03 02:53:18;;;;;;;19.33;8.40;;;;;;;2.30;77.62;102467.41;1748682;82;21184;-63
2021/10/03 02:55:52;;;;;;;15.00;8.25;;;;;;;2.27;77.53;102463.61;1748793;82;21505;-63
2021/10/03 02:58:24;;;;;;;;;;;;;;;2.25;77.51;102472.66;1750898;82;21328;-62
2021/10/03 03:00:57;;;;;;;19.27;8.28;;;;;;;2.22;77.46;102472.72;1746286;82;20169;-61
2021/10/03 03:03:30;;;;;;;;;;;;;;;2.19;77.54;102471.94;1749093;82;21301;-61
2021/10/03 03:06:08;;;;;;;29.87;7.97;;;;;;;2.18;77.55;102465.05;1747388;82;20193;-62
2021/10/03 03:08:41;;;;;;;17.92;8.65;;;;;;;2.14;77.56;102478.48;1746362;82;21329;-62
2021/10/03 03:11:15;;;;;;;19.65;9.68;;;;;;;2.13;77.58;102478.06;1747476;82;21245;-62
2021/10/03 03:13:48;;;;;;;16.77;9.33;;;;;;;2.12;77.54;102478.11;1746811;82;21724;-63
2021/10/03 03:16:21;;;;;;;17.52;7.85;;;;;;;2.11;77.56;102475.09;1747454;82;21134;-62
2021/10/03 03:18:55;;;;;;;16.02;7.35;;;;;;;2.11;77.61;102481.13;1746508;82;21296;-61
2021/10/03 03:21:28;;;;;;;14.43;7.15;;;;;;;2.10;77.69;102474.27;1747359;82;21261;-62
2021/10/03 03:24:01;;;;;;;11.93;6.20;;;;;;;2.12;77.80;102476.38;1746687;82;21289;-62
2021/10/03 03:26:35;;;;;;;12.53;7.28;;;;;;;2.16;77.79;102477.16;1747163;82;21264;-62
2021/10/03 03:29:08;;;;;;;10.32;6.70;;;;;;;2.13;77.70;102474.19;1746791;82;21189;-62
2021/10/03 03:31:41;;;;;;;12.57;6.80;;;;;;;2.13;77.78;102472.90;1747444;82;21268;-62
2021/10/03 03:34:14;;;;;;;10.95;7.10;;;;;;;2.15;77.87;102477.59;1746923;82;21334;-62
2021/10/03 03:36:47;;;;;;;13.68;6.90;;;;;;;2.16;77.87;102475.86;1747426;82;21303;-62
2021/10/03 03:39:20;;;;;;;12.63;6.72;;;;;;;2.18;77.84;102479.27;1746824;82;21337;-62
2021/10/03 03:41:53;;;;;;;14.50;6.58;;;;;;;2.20;77.81;102471.90;1747255;82;21331;-62
2021/10/03 03:44:26;;;;;;;12.23;6.65;;;;;;;2.24;77.78;102472.27;1746540;82;21280;-63
2021/10/03 03:47:01;;;;;;;10.68;6.03;;;;;;;2.29;77.78;102475.62;1747521;82;21265;-62
2021/10/03 03:49:34;;;;;;;10.85;6.50;;;;;;;2.34;77.77;102481.52;1746661;82;21855;-62
2021/10/03 03:52:07;;;;;;;15.53;7.10;;;;;;;2.41;77.63;102481.81;1747246;82;21134;-62
2021/10/03 03:54:40;;;;;;;17.52;8.08;;;;;;;2.50;77.55;102488.55;1746495;82;21291;-63
2021/10/03 03:57:14;;;;;;;29.85;14.53;;;;;;;2.60;77.41;102481.03;1747176;82;21304;-62
2021/10/03 03:59:47;;;;;;;43.83;18.52;;;;;;;2.68;77.23;102482.99;1746550;82;21300;-63
2021/10/03 04:02:20;;;;;;;28.67;13.43;;;;;;;2.77;77.09;102486.67;1747460;82;21201;-62
2021/10/03 04:04:54;;;;;;;27.87;13.53;;;;;;;2.87;76.93;102485.60;1748207;82;21460;-62
2021/10/03 04:07:27;;;;;;;16.00;9.53;;;;;;;3.00;76.78;102487.05;1749065;82;21122;-62
2021/10/03 04:10:00;;;;;;;30.40;14.83;;;;;;;3.20;76.66;102489.20;1748490;82;21173;-63
2021/10/03 04:12:35;;;;;;;;;;;;;;;3.47;76.52;102488.53;1749943;82;21188;-63
2021/10/03 04:15:09;;;;;;;23.02;11.18;;;;;;;4.09;76.28;102486.50;1748355;82;20193;-63
2021/10/03 04:17:42;;;;;;;25.02;10.90;;;;;;;5.09;75.15;102483.59;1749281;82;21169;-63
2021/10/03 04:20:16;;;;;;;22.90;10.82;;;;;;;6.17;73.03;102486.54;1748339;82;21300;-63
2021/10/03 04:22:49;;;;;;;22.40;11.57;;;;;;;7.17;70.64;102477.97;1749147;82;21264;-65
2021/10/03 04:25:22;;;;;;;22.93;10.38;;;;;;;8.14;68.06;102477.34;1748618;82;21276;-66
2021/10/03 04:27:55;;;;;;;22.42;10.50;;;;;;;9.04;65.09;102476.76;1749285;82;21312;-67
2021/10/03 04:30:29;;;;;;;22.73;10.70;;;;;;;9.84;62.50;102478.49;1748709;82;21284;-69
2021/10/03 04:33:02;;;;;;;16.77;8.23;;;;;;;10.59;59.83;102473.67;1749431;82;21253;-69
2021/10/03 04:35:35;;;;;;;12.90;7.80;;;;;;;11.28;57.06;102476.34;1748516;82;21340;-69
2021/10/03 04:38:08;;;;;;;15.93;8.80;;;;;;;11.89;54.85;102477.59;1749026;82;21260;-69
2021/10/03 04:40:43;;;;;;;13.98;8.15;;;;;;;12.53;52.61;102470.63;1748165;82;21280;-69
2021/10/03 04:43:17;;;;;;;18.42;9.00;;;;;;;13.14;50.84;102470.70;1749360;82;21252;-69
2021/10/03 04:45:50;;;;;;;;;;;;;;;13.69;48.70;102475.83;1749889;82;21170;-70
2021/10/03 04:48:23;;;;;;;21.57;11.43;;;;;;;14.21;47.14;102472.66;1748894;82;20222;-70
2021/10/03 04:50:56;;;;;;;23.02;12.45;;;;;;;14.70;45.44;102472.75;1748239;82;21942;-70
2021/10/03 04:53:29;;;;;;;21.12;11.50;;;;;;;15.23;43.81;102477.65;1749007;82;21129;-68
2021/10/03 04:56:03;;;;;;;17.90;10.48;;;;;;;15.74;42.41;102470.30;1748501;82;21337;-69
2021/10/03 04:58:37;;;;;;;16.05;9.58;;;;;;;16.21;40.98;102474.61;1748904;82;21296;-69
2021/10/03 05:01:11;;;;;;;12.98;9.03;;;;;;;16.60;40.07;102470.66;1748379;82;21281;-69
2021/10/03 05:03:44;;;;;;;16.30;8.28;;;;;;;17.03;38.80;102470.75;1747373;81;21331;-72
2021/10/03 05:06:17;;;;;;;;;;;;;;;17.43;37.94;102470.48;1750750;82;21189;-71
2021/10/03 05:08:49;;;;;;;8.05;6.00;;;;;;;17.86;37.19;102477.89;1748920;82;20161;-69
2021/10/03 05:11:23;;;;;;;8.98;7.00;;;;;;;18.28;36.47;102473.84;1747950;82;21181;-69
2021/10/03 05:13:57;;;;;;;11.00;6.25;;;;;;;18.73;35.60;102468.55;1748965;82;21257;-69
2021/10/03 05:16:30;;;;;;;10.85;5.55;;;;;;;19.12;34.65;102470.31;1747240;82;21162;-69
2021/10/03 05:19:04;;;;;;;8.23;6.53;;;;;;;19.52;34.01;102465.38;1748372;82;21327;-70
2021/10/03 05:21:37;;;;;;;9.10;5.12;;;;;;;19.86;33.14;102468.78;1748143;82;21217;-71
2021/10/03 05:24:10;;;;;;;6.33;4.65;;;;;;;20.15;32.74;102467.39;1749382;82;21180;-70
2021/10/03 05:26:43;;;;;;;7.12;4.70;;;;;;;20.48;32.16;102464.20;1748077;82;21292;-70
2021/10/03 05:29:17;;;;;;;8.55;4.70;;;;;;;20.86;31.50;102467.64;1749214;82;21261;-70
2021/10/03 05:31:51;;;;;;;5.60;4.35;;;;;;;21.55;30.54;102466.52;1748003;82;21177;-70
2021/10/03 05:34:25;;;;;;;7.58;4.53;;;;;;;21.55;30.54;102466.52;1749064;82;21153;-69
2021/10/03 05:36:58;;;;;;;8.40;4.55;;;;;;;21.91;30.12;102473.00;1748080;82;21340;-67
2021/10/03 05:39:31;;;;;;;6.33;4.75;;;;;;;22.25;29.35;102474.88;1749287;82;21241;-67
2021/10/03 05:42:05;;;;;;;5.40;4.25;;;;;;;22.65;28.88;102474.59;1748042;82;21291;-67
2021/10/03 05:44:37;;;;;;;;;;;;;;;23.02;28.37;102468.88;1751170;82;21295;-67
2021/10/03 05:47:10;;;;;;;5.47;3.92;;;;;;;23.34;27.96;102470.25;1747824;82;20233;-67
2021/10/03 05:49:44;;;;;;;7.75;4.40;;;;;;;23.63;27.63;102472.45;1747087;82;21166;-67
2021/10/03 05:52:17;;;;;;;6.55;4.22;;;;;;;24.04;27.11;102480.78;1747928;82;21280;-67
2021/10/03 05:54:50;;;;;;;6.25;3.95;;;;;;;24.39;26.64;102476.85;1749330;82;21190;-67
2021/10/03 05:57:23;;;;;;;;;;;;;;;24.74;26.19;102479.57;1750590;82;21292;-67
2021/10/03 05:59:55;;;;;;;6.37;4.28;;;;;;;24.99;25.71;102478.94;1748881;82;20280;-67
2021/10/03 06:02:29;;;;;;;5.05;4.08;;;;;;;25.33;25.50;102476.70;1747951;82;21197;-67
2021/10/03 06:05:04;;;;;;;6.72;4.50;;;;;;;25.69;25.04;102479.12;1748649;82;21260;-67
2021/10/03 06:07:37;;;;;;;8.40;4.15;;;;;;;25.94;24.81;102481.89;1748071;82;21759;-67
2021/10/03 06:10:11;;;;;;;6.60;4.17;;;;;;;26.25;24.40;102479.08;1748622;82;21166;-68
2021/10/03 06:12:44;;;;;;;4.83;4.17;;;;;;;26.62;23.86;102468.73;1748070;82;21283;-68
2021/10/03 06:15:17;;;;;;;9.45;4.70;;;;;;;26.99;23.57;102469.91;1748942;82;21292;-67
2021/10/03 06:17:51;;;;;;;5.62;4.37;;;;;;;27.35;23.12;102463.97;1747391;82;21149;-68
2021/10/03 06:20:25;;;;;;;5.40;4.10;;;;;;;27.61;22.86;102462.59;1749048;82;21256;-67
2021/10/03 06:22:59;;;;;;;4.70;3.75;;;;;;;27.92;22.59;102463.00;1747219;82;21157;-68
2021/10/03 06:25:31;;;;;;;;;;;;;;;28.32;22.06;102462.27;1751299;82;21273;-68
2021/10/03 06:28:06;;;;;;;5.58;3.70;;;;;;;28.65;21.90;102456.53;1748085;82;20233;-68
2021/10/03 06:30:39;;;;;;;3.92;3.47;;;;;;;28.93;21.57;102459.59;1749030;82;21283;-69
2021/10/03 06:33:12;;;;;;;6.45;3.95;;;;;;;29.34;21.17;102453.07;1747990;82;21194;-69
2021/10/03 06:35:44;;;;;;;;;;;;;;;29.69;20.87;102458.23;1751280;82;21257;-69
2021/10/03 06:38:17;;;;;;;6.08;3.80;;;;;;;29.96;20.61;102458.05;1748023;82;20229;-68
2021/10/03 06:40:50;;;;;;;6.97;3.67;;;;;;;30.08;20.57;102456.03;1749089;82;21300;-68
2021/10/03 06:43:23;;;;;;;5.12;3.60;;;;;;;30.29;20.36;102453.89;1747901;82;21280;-69
2021/10/03 06:45:57;;;;;;;5.67;3.70;;;;;;;30.56;20.13;102448.73;1748786;82;21129;-69
2021/10/03 06:48:32;;;;;;;5.15;3.20;;;;;;;30.82;19.81;102446.41;1747502;82;21304;-68
2021/10/03 06:51:05;;;;;;;4.62;3.22;;;;;;;31.00;19.55;102448.42;1748779;82;21182;-69
2021/10/03 06:53:39;;;;;;;4.12;3.17;;;;;;;31.24;19.41;102444.38;1747880;82;21189;-71
2021/10/03 06:56:12;;;;;;;3.80;2.83;;;;;;;31.59;19.15;102445.27;1748970;82;21157;-71
2021/10/03 06:58:45;;;;;;;6.67;3.22;;;;;;;31.90;18.58;102444.66;1747935;82;21189;-71
2021/10/03 07:01:20;;;;;;;5.95;3.40;;;;;;;32.16;18.36;102445.44;1749279;82;21205;-71
2021/10/03 07:03:55;;;;;;;3.52;3.22;;;;;;;32.32;18.28;102438.88;1737646;82;21372;-70
2021/10/03 07:06:28;;;;;;;4.22;3.37;;;;;;;32.55;18.01;102440.37;1692352;85;21799;-70
2021/10/03 07:09:01;;;;;;;4.08;3.20;;;;;;;32.80;17.66;102433.98;1719417;83;21221;-71
2021/10/03 07:11:35;;;;;;;5.47;3.45;;;;;;;32.94;17.52;102439.00;1692608;85;21292;-71
2021/10/03 07:14:08;;;;;;;5.55;3.25;;;;;;;33.07;17.24;102431.22;1691354;85;21185;-70
2021/10/03 07:16:42;;;;;;;3.20;2.50;;;;;;;33.25;17.08;102429.77;1691053;84;21193;-71
2021/10/03 07:19:15;;;;;;;3.62;2.22;;;;;;;33.50;16.60;102431.76;1691186;85;21292;-69
2021/10/03 07:21:48;;;;;;;4.15;2.20;;;;;;;33.70;16.45;102428.72;1692170;85;21312;-69
2021/10/03 07:24:21;;;;;;;4.15;2.17;;;;;;;33.84;16.08;102430.13;1691261;85;21331;-71
2021/10/03 07:26:54;;;;;;;2.98;2.15;;;;;;;33.93;15.94;102422.42;1692371;85;21161;-70
2021/10/03 07:29:27;;;;;;;5.53;2.33;;;;;;;34.05;15.80;102422.73;1701007;83;21260;-69
2021/10/03 07:32:00;;;;;;;3.70;2.27;;;;;;;34.22;15.74;102425.00;1751667;82;21149;-68
2021/10/03 07:34:34;;;;;;;7.03;2.83;;;;;;;34.36;15.63;102417.38;1719497;83;21394;-70
2021/10/03 07:37:07;;;;;;;3.95;2.60;;;;;;;34.52;15.44;102398.39;1749213;82;21327;-70
2021/10/03 07:39:41;;;;;;;3.27;2.55;;;;;;;34.64;15.28;102404.34;1719341;83;21383;-70
2021/10/03 07:42:14;;;;;;;4.40;3.02;;;;;;;34.85;15.03;102401.73;1749980;82;21268;-69
2021/10/03 07:44:47;;;;;;;4.37;2.83;;;;;;;34.91;15.00;102402.66;1720000;83;21279;-70
2021/10/03 07:47:21;;;;;;;3.02;2.50;;;;;;;34.78;14.82;102400.23;1750693;82;21153;-69
2021/10/03 07:49:54;;;;;;;6.72;4.78;;;;;;;34.68;14.52;102404.96;1719938;83;21287;-69
2021/10/03 07:52:27;;;;;;;3.00;1.37;;;;;;;34.26;13.60;102407.66;1750705;82;21260;-69
2021/10/03 07:55:00;;;;;;;2.17;1.32;;;;;;;33.65;13.48;102403.60;1720017;83;21276;-69
2021/10/03 07:57:35;;;;;;;2.67;1.30;;;;;;;33.04;13.79;102407.25;1750445;82;21137;-69
2021/10/03 08:00:10;;;;;;;12.53;1.92;;;;;;;32.62;13.43;102406.93;1719818;83;21283;-69
2021/10/03 08:02:43;;;;;;;4.83;1.25;;;;;;;31.92;13.26;102406.50;1750449;82;21180;-69
2021/10/03 08:05:17;;;;;;;2.70;1.40;;;;;;;30.85;14.03;102415.39;1719988;82;21291;-70
2021/10/03 08:07:50;;;;;;;1.35;1.20;;;;;;;30.19;14.57;102422.43;1752313;82;21161;-69
2021/10/03 08:10:24;;;;;;;6.87;1.82;;;;;;;29.76;15.03;102415.86;1721972;83;21160;-69
2021/10/03 08:12:58;;;;;;;15.80;10.45;;;;;;;29.38;15.54;102412.19;1753379;82;21146;-68
2021/10/03 08:15:34;;;;;;;6.05;4.30;;;;;;;29.15;15.89;102402.60;1722517;83;21312;-69
2021/10/03 08:18:07;;;;;;;11.45;6.50;;;;;;;29.08;15.95;102407.67;1723885;83;21236;-70
2021/10/03 08:20:42;;;;;;;17.85;3.67;;;;;;;29.08;16.11;102404.98;1722311;83;21299;-71
2021/10/03 08:23:15;;;;;;;3.05;2.70;;;;;;;28.73;15.77;102407.00;1723622;83;21276;-69
2021/10/03 08:25:49;;;;;;;4.83;2.17;;;;;;;28.26;16.26;102394.35;1722245;83;21161;-70
2021/10/03 08:28:22;;;;;;;3.90;1.77;;;;;;;28.17;16.59;102408.19;1724080;83;21197;-70
2021/10/03 08:30:55;;;;;;;3.87;2.25;;;;;;;27.95;16.67;102399.34;1722326;83;21343;-71
2021/10/03 08:33:29;;;;;;;2.77;1.70;;;;;;;27.70;17.00;102407.58;1723538;83;21272;-71
2021/10/03 08:36:03;;;;;;;101.12;64.58;;;;;;;27.67;17.28;102398.04;1722212;83;21296;-68
2021/10/03 08:38:36;;;;;;;101.70;66.30;;;;;;;28.06;17.30;102391.27;1753247;82;21157;-71
2021/10/03 08:41:10;;;;;;;7.92;4.15;;;;;;;28.46;16.86;102394.44;1722102;83;21292;-68
2021/10/03 08:43:44;;;;;;;459.75;316.82;;;;;;;28.22;16.26;102399.00;1723652;83;21165;-70
2021/10/03 08:46:17;;;;;;;195.05;117.28;;;;;;;27.35;16.81;102390.00;1752250;82;21181;-67
2021/10/03 08:48:50;;;;;;;20.72;11.50;;;;;;;26.95;17.32;102379.92;1723577;83;21272;-65
2021/10/03 08:51:24;;;;;;;5.80;3.02;;;;;;;26.60;17.28;102383.46;1751970;82;21343;-67
2021/10/03 08:53:57;;;;;;;75.78;45.73;;;;;;;26.21;17.96;102378.95;1723381;83;21327;-66
2021/10/03 08:56:31;;;;;;;339.27;184.57;;;;;;;26.09;18.13;102377.22;1752023;82;21276;-66
2021/10/03 08:59:04;;;;;;;7.70;3.30;;;;;;;25.92;18.27;102384.62;1723492;83;21285;-66
2021/10/03 09:01:54;;;;;;;39.38;25.65;;;;;;;25.61;18.21;102379.09;1722093;83;21281;-65
2021/10/03 09:04:33;;;;;;;11.50;7.08;;;;;;;25.15;18.75;102378.34;1752615;82;21255;-66
2021/10/03 09:07:11;;;;;;;8.83;2.55;;;;;;;25.44;18.91;102373.06;1722173;83;21315;-65
2021/10/03 09:10:00;;;;;;;5.37;2.15;;;;;;;25.48;19.08;102377.57;1752596;82;21245;-65
2021/10/03 09:12:38;;;;;;;6.22;3.58;;;;;;;25.41;18.96;102378.25;1722379;83;21340;-65
2021/10/03 09:15:20;;;;;;;3.83;1.87;;;;;;;25.34;19.08;102376.47;1752690;82;21228;-66
2021/10/03 09:17:56;;;;;;;3.60;1.60;;;;;;;25.08;19.05;102370.66;1723079;83;21264;-65
2021/10/03 09:20:30;;;;;;;3.47;1.90;;;;;;;24.55;19.54;102368.85;1752981;82;21176;-67
2021/10/03 09:23:17;;;;;;;30.75;16.77;;;;;;;24.18;20.06;102368.69;1723903;83;21784;-66
2021/10/03 09:25:52;;;;;;;3.00;2.00;;;;;;;24.07;20.13;102368.59;1752930;82;21185;-65
2021/10/03 09:28:33;;;;;;;2.47;1.35;;;;;;;23.89;20.21;102370.60;1723509;83;21224;-65
2021/10/03 09:31:21;;;;;;;24.55;13.05;;;;;;;23.56;20.61;102371.19;1752527;82;21248;-64
2021/10/03 09:33:59;;;;;;;15.50;8.68;;;;;;;23.20;21.03;102353.81;1722008;83;21792;-66
2021/10/03 09:36:34;;;;;;;6.85;3.83;;;;;;;23.00;21.12;102352.50;1722905;83;21173;-64
2021/10/03 09:39:09;;;;;;;7.83;4.95;;;;;;;22.76;21.11;102366.63;1723320;83;21292;-65
2021/10/03 09:41:42;;;;;;;3.77;2.00;;;;;;;22.21;21.72;102360.94;1702908;83;21279;-64
2021/10/03 09:44:17;;;;;;;2.00;1.77;;;;;;;21.23;23.15;102381.31;1723087;83;21343;-65
2021/10/03 09:46:51;;;;;;;21.60;8.90;;;;;;;21.23;23.15;102381.31;1722639;83;21304;-64
2021/10/03 09:49:31;;;;;;;17.23;8.08;;;;;;;20.86;24.15;102355.81;1723562;83;21129;-66
2021/10/03 09:52:05;;;;;;;26.00;15.38;;;;;;;20.56;24.82;102359.69;1722338;83;21343;-65
2021/10/03 09:54:38;;;;;;;17.37;11.55;;;;;;;20.40;25.10;102347.52;1753346;82;21138;-64
2021/10/03 09:57:12;;;;;;;12.33;7.92;;;;;;;20.29;25.30;102345.91;1722575;83;21324;-65
2021/10/03 09:59:45;;;;;;;9.23;5.72;;;;;;;19.95;25.57;102349.61;1723599;83;21244;-64
2021/10/03 10:02:20;;;;;;;4.78;2.37;;;;;;;19.51;26.00;102341.03;1722468;83;21315;-64
2021/10/03 10:04:53;;;;;;;9.85;5.87;;;;;;;19.18;26.27;102335.66;1703846;83;21197;-66
2021/10/03 10:07:26;;;;;;;10.85;6.53;;;;;;;18.83;27.05;102340.70;1722925;83;21244;-65
2021/10/03 10:10:00;;;;;;;8.03;3.70;;;;;;;18.48;27.55;102345.70;1731975;82;21327;-63
2021/10/03 10:12:39;;;;;;;12.18;7.35;;;;;;;18.13;27.76;102332.85;1722157;83;21332;-65
2021/10/03 10:15:12;;;;;;;10.30;5.85;;;;;;;17.94;28.69;102328.33;1723720;83;21260;-65
2021/10/03 10:17:46;;;;;;;3.72;2.52;;;;;;;17.79;28.95;102327.00;1722652;83;21193;-66
2021/10/03 10:20:27;;;;;;;2.12;1.87;;;;;;;17.61;29.34;102335.22;1723656;83;21265;-64
2021/10/03 10:23:08;;;;;;;3.98;2.45;;;;;;;17.41;29.08;102322.31;1702130;83;21281;-67
2021/10/03 10:25:51;;;;;;;3.85;2.15;;;;;;;17.21;29.31;102324.97;1723528;83;21154;-66
2021/10/03 10:28:33;;;;;;;;;;;;;;;17.04;29.45;102333.48;1724558;83;21296;-64
2021/10/03 10:31:23;;;;;;;6.60;2.55;;;;;;;16.78;29.58;102316.64;1753642;82;20610;-66
2021/10/03 10:34:04;;;;;;;5.25;2.15;;;;;;;16.64;29.89;102321.38;1723783;83;21312;-64
2021/10/03 10:36:52;;;;;;;8.43;4.00;;;;;;;16.56;30.33;102314.55;1751866;82;21216;-65
2021/10/03 10:39:25;;;;;;;15.58;7.97;;;;;;;16.49;30.78;102314.18;1723537;83;21736;-65
2021/10/03 10:42:01;;;;;;;32.13;12.60;;;;;;;16.47;30.53;102302.05;1753374;82;21315;-64
2021/10/03 10:44:37;;;;;;;13.30;6.90;;;;;;;16.43;30.79;102303.27;1722988;83;21298;-67
2021/10/03 10:47:17;;;;;;;6.70;2.80;;;;;;;16.41;30.66;102309.13;1723264;83;21181;-66
2021/10/03 10:49:55;;;;;;;5.12;2.75;;;;;;;16.40;30.86;102304.35;1722019;82;21158;-66
2021/10/03 10:52:29;;;;;;;47.93;25.35;;;;;;;16.35;31.24;102305.68;1722967;83;21327;-65
2021/10/03 10:55:09;;;;;;;7.90;4.47;;;;;;;16.32;31.12;102303.27;1753637;82;21272;-65
2021/10/03 10:57:57;;;;;;;9.70;6.10;;;;;;;16.27;31.15;102307.61;1707696;83;21173;-68
2021/10/03 11:00:31;;;;;;;5.80;3.10;;;;;;;16.24;31.24;102303.07;1722194;83;21318;-70
2021/10/03 11:03:05;;;;;;;6.33;3.77;;;;;;;16.18;31.48;102304.39;1726551;82;21291;-65
2021/10/03 11:05:45;;;;;;;15.45;6.75;;;;;;;16.16;31.36;102301.03;1764335;81;21350;-67
2021/10/03 11:08:23;;;;;;;21.50;10.78;;;;;;;16.14;31.55;102303.78;1722852;83;21276;-65
2021/10/03 11:11:09;;;;;;;3.50;2.45;;;;;;;16.15;31.22;102299.34;1752157;81;21863;-69
2021/10/03 11:13:48;;;;;;;14.73;6.72;;;;;;;16.13;31.34;102310.52;1722081;83;21157;-64
2021/10/03 11:16:37;;;;;;;20.85;10.68;;;;;;;16.13;32.26;102298.63;1753793;82;21272;-65
2021/10/03 11:19:16;;;;;;;10.85;5.65;;;;;;;16.14;31.65;102292.39;1722193;83;21346;-64
2021/10/03 11:21:55;;;;;;;19.75;5.85;;;;;;;16.16;32.03;102289.99;1723486;83;21162;-65
2021/10/03 11:24:32;;;;;;;4.42;2.42;;;;;;;16.16;31.87;102289.99;1723399;83;21300;-63
2021/10/03 11:27:11;;;;;;;7.45;4.33;;;;;;;16.11;31.09;102286.03;1723702;83;21787;-64
2021/10/03 11:29:54;;;;;;;3.08;2.22;;;;;;;16.06;31.64;102286.88;1723540;83;21265;-63
2021/10/03 11:32:34;;;;;;;5.28;2.45;;;;;;;16.04;31.34;102286.16;1723284;83;21347;-65
2021/10/03 11:35:17;;;;;;;3.98;2.55;;;;;;;16.03;31.57;102281.82;1723684;83;21185;-63
2021/10/03 11:37:49;;;;;;;3.17;2.10;;;;;;;16.01;31.67;102284.59;1721793;83;21291;-63
2021/10/03 11:40:23;;;;;;;10.63;4.42;;;;;;;16.00;31.83;102280.77;1723475;83;21258;-65
2021/10/03 11:42:58;;;;;;;4.85;3.02;;;;;;;15.97;31.75;102279.69;1721952;83;21355;-65
2021/10/03 11:45:34;;;;;;;17.27;8.85;;;;;;;15.93;31.86;102275.62;1722764;83;21213;-64
2021/10/03 11:48:08;;;;;;;21.50;11.68;;;;;;;15.89;32.06;102268.41;1722451;83;21882;-64
2021/10/03 11:50:50;;;;;;;7.17;4.12;;;;;;;15.87;32.36;102275.61;1752239;82;21363;-64
2021/10/03 11:53:25;;;;;;;23.75;12.73;;;;;;;15.86;32.48;102273.91;1722415;83;21284;-63
2021/10/03 11:56:09;;;;;;;4.47;2.62;;;;;;;15.83;32.42;102274.19;1752599;82;21256;-64
2021/10/03 11:58:47;;;;;;;2.85;2.10;;;;;;;15.79;32.39;102268.76;1723066;83;21225;-62